Terminal Aerodrome Forecast
Issued by NWS Buffalo, NY

Home | Current Version | Previous Version | Text Only | Print | Product List | Glossary On
Versions: 1 2 3 4 5 6 7 8 9 10 11 12 13 14 15 16 17 18 19 20 21 22 23 24 25 26 27
000
FTUS41 KBUF 311700
TAFROC
TAF
KROC 311720Z 3118/0118 24011KT P6SM VCTS BKN040CB
     FM312200 23007KT P6SM FEW040 SCT250
     FM010100 22006KT P6SM SCT250
     FM011400 23009KT P6SM FEW050 SCT150=

USA.gov is the U.S. government's official web portal to all federal, state and local government web resources and services.